Aérodrome :
LOGIN :

S'inscrire | Disclaimer

   EN    FR    IT 

 










Légende :    VFR   VFR Marginal   IFR   IFR Intensif   IFR Très Intensif
Visi : 
Plafond : 
>= 8 km
>= 3000ft
5 à 8 km
1000 à 3000 ft
1500m à 5 km
500 à 1000 ft
800 à 1500m
200 à 500 ft
< 800m
< 200 ft
Symboles :   Orages  Brouillard  Fortes neiges  Fortes précipitations  Vent > 20 kt
SIGMETs :   Divers  Orages  Givrage  Turbulence  Onde Orograph.  Cendres Volcan.






- Altitude de l'aérodrome : 20 ft
- Code IATA : LSI


EGPB - Sumburgh

DERNIER METAR :
  • 110050Z AUTO 10006KT 9999 NCD 12/12 Q1023

METARs EXPIRÉS :
  • 110020Z AUTO 10005KT 9999 SCT046/// 13/12 Q1024
  • 102350Z AUTO 10005KT 9999 BKN046/// 13/13 Q1024
  • 102320Z AUTO 10005KT 9999 OVC045/// 14/13 Q1024
  • 102250Z AUTO 10004KT 9999 OVC047/// 14/13 Q1024
  • 102220Z AUTO 11004KT 9999 OVC047/// 14/13 Q1024
  • 102150Z AUTO 13007KT 9999 OVC042/// 14/13 Q1024 NOSIG

TAF TAF EGPB
Valide du 11 à 00h jusqu'au 11 à 09h UTC


102303Z 1100/1109 11007KT 9999 FEW012 SCT040
PROB30
TEMPO 1100/1109 BKN010



MET'MAP, la Météo Aéronautique d'un coup d'oeil ! - Copyright ORBIFLY Décembre 2007 - Disclaimer

ORBIFLY MET'MAP TEAM :

Programmation & Développement : Alexandra Zaïnal
Sur une idée originale de : Baudouin d'Aumeries
Assistance à la programmation : Marc-Olivier Méhu
Soutien technique & logistique : Manuel Goepfert

Contact : metmap@orbifly.com




SOURCES & CREDITS :

   NOAA